createdAt,value
2019-02-26T00:01:48.531Z,8.20
2019-02-26T00:04:54.071Z,8.20
2019-02-26T00:08:03.686Z,8.20
2019-02-26T00:11:10.664Z,8.30
2019-02-26T00:14:17.521Z,8.30
2019-02-26T00:17:22.034Z,8.30
2019-02-26T00:20:29.064Z,8.40
2019-02-26T00:23:33.890Z,8.40
2019-02-26T00:26:40.697Z,8.30
2019-02-26T00:29:46.363Z,8.20
2019-02-26T00:32:53.239Z,8.10
2019-02-26T00:35:58.829Z,8.10
2019-02-26T00:39:05.101Z,8.00
2019-02-26T00:42:11.005Z,8.00
2019-02-26T00:45:16.137Z,8.00
2019-02-26T00:48:22.090Z,8.00
2019-02-26T00:51:27.051Z,8.00
2019-02-26T00:54:34.297Z,8.10
2019-02-26T00:57:40.699Z,8.00
2019-02-26T01:00:45.796Z,8.00
2019-02-26T01:03:51.871Z,8.10
2019-02-26T01:06:58.979Z,8.10
2019-02-26T01:10:03.558Z,8.20
2019-02-26T01:13:08.750Z,8.20
2019-02-26T01:16:13.657Z,8.20
2019-02-26T01:19:19.864Z,8.20
2019-02-26T01:22:25.199Z,8.20
2019-02-26T01:25:30.023Z,8.20
2019-02-26T01:28:35.423Z,8.20
2019-02-26T01:31:40.465Z,8.20
2019-02-26T01:34:47.284Z,8.20
2019-02-26T01:37:54.041Z,8.30
2019-02-26T01:40:59.375Z,8.30
2019-02-26T01:44:04.444Z,8.30
2019-02-26T01:47:09.514Z,8.30
2019-02-26T01:50:16.192Z,8.30
2019-02-26T01:53:23.532Z,8.30
2019-02-26T01:56:36.496Z,8.30
2019-02-26T01:59:41.472Z,8.30
2019-02-26T02:02:46.467Z,8.30
2019-02-26T02:05:53.029Z,8.30
2019-02-26T02:08:58.377Z,8.30
2019-02-26T02:12:04.294Z,8.30
2019-02-26T02:15:12.378Z,8.20
2019-02-26T02:18:18.104Z,8.10
2019-02-26T02:21:26.081Z,8.10
2019-02-26T02:24:31.252Z,8.10
2019-02-26T02:27:37.553Z,8.10
2019-02-26T02:30:42.762Z,8.10
2019-02-26T02:33:47.740Z,8.10
2019-02-26T02:36:52.837Z,8.10
2019-02-26T02:39:58.106Z,8.10
2019-02-26T02:43:04.657Z,8.20
2019-02-26T02:46:10.100Z,8.10
2019-02-26T02:49:15.845Z,8.10
2019-02-26T02:52:21.706Z,8.00
2019-02-26T02:55:26.958Z,7.90
2019-02-26T02:58:31.972Z,7.90
2019-02-26T03:01:36.768Z,7.90
2019-02-26T03:04:41.739Z,7.80
2019-02-26T03:07:50.444Z,7.80
2019-02-26T03:10:53.406Z,7.70
2019-02-26T03:13:58.674Z,7.80
2019-02-26T03:17:05.677Z,7.70
2019-02-26T03:20:10.903Z,7.70
2019-02-26T03:23:19.622Z,7.60
2019-02-26T03:26:23.520Z,7.50
2019-02-26T03:29:32.263Z,7.50
2019-02-26T03:32:41.492Z,7.50
2019-02-26T03:35:43.771Z,7.40
2019-02-26T03:38:50.875Z,7.40
2019-02-26T03:41:56.451Z,7.40
2019-02-26T03:45:03.203Z,7.40
2019-02-26T03:48:08.371Z,7.50
2019-02-26T03:51:17.208Z,7.40
2019-02-26T03:54:19.931Z,7.40
2019-02-26T03:57:25.679Z,7.40
2019-02-26T04:00:32.424Z,7.40
2019-02-26T04:03:46.221Z,7.40
2019-02-26T04:06:51.182Z,7.30
2019-02-26T04:09:58.461Z,7.30
2019-02-26T04:13:03.200Z,7.40
2019-02-26T04:16:08.125Z,7.40
2019-02-26T04:19:13.246Z,7.40
2019-02-26T04:22:31.830Z,7.40
2019-02-26T04:26:20.827Z,7.50
2019-02-26T04:29:40.921Z,7.40
2019-02-26T04:33:14.345Z,7.40
2019-02-26T04:36:37.833Z,7.40
2019-02-26T04:40:01.430Z,7.40
2019-02-26T04:43:52.517Z,7.40
2019-02-26T04:47:03.528Z,7.40
2019-02-26T04:50:09.008Z,7.40
2019-02-26T04:53:13.849Z,7.40
2019-02-26T04:56:40.180Z,7.40
2019-02-26T04:59:44.412Z,7.50
2019-02-26T05:02:49.585Z,7.40
2019-02-26T05:05:57.251Z,7.30
2019-02-26T05:09:02.866Z,7.20
2019-02-26T05:12:08.048Z,7.10
2019-02-26T05:15:16.908Z,6.90
2019-02-26T05:18:20.336Z,6.80
2019-02-26T05:21:27.131Z,6.80
2019-02-26T05:24:33.075Z,6.70
2019-02-26T05:27:41.614Z,6.70
2019-02-26T05:30:46.382Z,6.60
2019-02-26T05:33:54.221Z,6.50
2019-02-26T05:36:59.920Z,6.40
2019-02-26T05:40:07.080Z,6.30
2019-02-26T05:43:11.750Z,6.30
2019-02-26T05:46:19.524Z,6.40
2019-02-26T05:49:23.747Z,6.50
2019-02-26T05:52:30.856Z,6.50
2019-02-26T05:55:35.517Z,6.50
2019-02-26T05:58:41.882Z,6.60
2019-02-26T06:01:49.480Z,6.70
2019-02-26T06:04:54.147Z,6.80
2019-02-26T06:07:59.299Z,6.90
2019-02-26T06:11:04.287Z,7.00
2019-02-26T06:14:12.860Z,7.10
2019-02-26T06:17:19.748Z,7.20
2019-02-26T06:20:28.069Z,7.30
2019-02-26T06:23:34.005Z,7.40
2019-02-26T06:26:40.667Z,7.50
2019-02-26T06:29:44.928Z,7.60
2019-02-26T06:32:52.073Z,7.70
2019-02-26T06:35:59.013Z,7.80
2019-02-26T06:39:06.485Z,8.00
2019-02-26T06:42:12.200Z,8.40
2019-02-26T06:45:18.178Z,8.60
2019-02-26T06:48:25.031Z,8.90
2019-02-26T06:51:30.757Z,9.20
2019-02-26T06:54:35.921Z,9.50
2019-02-26T06:57:41.393Z,9.80
2019-02-26T07:00:48.267Z,10.00
2019-02-26T07:03:56.061Z,10.30
2019-02-26T07:07:02.032Z,10.60
2019-02-26T07:10:09.360Z,10.90
2019-02-26T07:13:14.704Z,11.20
2019-02-26T07:16:20.625Z,11.50
2019-02-26T07:19:26.597Z,11.80
2019-02-26T07:22:32.794Z,12.10
2019-02-26T07:25:39.432Z,12.40
2019-02-26T07:29:04.008Z,12.60
2019-02-26T07:32:09.991Z,12.90
2019-02-26T07:35:16.778Z,13.10
2019-02-26T07:38:23.037Z,13.40
2019-02-26T07:41:31.601Z,13.60
2019-02-26T07:44:36.563Z,13.80
2019-02-26T07:47:41.590Z,14.10
2019-02-26T07:50:49.036Z,14.30
2019-02-26T07:53:55.922Z,14.40
2019-02-26T07:57:02.645Z,14.70
2019-02-26T08:00:11.113Z,14.90
2019-02-26T08:03:17.388Z,15.20
2019-02-26T08:06:23.287Z,15.50
2019-02-26T08:09:28.419Z,15.70
2019-02-26T08:12:35.640Z,15.90
2019-02-26T08:15:40.053Z,16.10
2019-02-26T08:18:44.987Z,16.30
2019-02-26T08:21:50.812Z,16.50
2019-02-26T08:24:58.146Z,16.90
2019-02-26T08:28:03.130Z,17.30
2019-02-26T08:31:11.274Z,17.50
2019-02-26T08:34:15.804Z,17.60
2019-02-26T08:37:20.923Z,18.20
2019-02-26T08:40:25.977Z,19.60
2019-02-26T08:43:31.102Z,21.50
2019-02-26T08:46:37.864Z,23.70
2019-02-26T08:49:45.111Z,24.20
2019-02-26T08:52:52.301Z,24.90
2019-02-26T08:55:58.295Z,26.30
2019-02-26T08:59:03.665Z,28.00
2019-02-26T09:02:08.729Z,29.80
2019-02-26T09:05:13.984Z,31.10
2019-02-26T09:08:19.084Z,33.20
2019-02-26T09:11:26.069Z,33.30
2019-02-26T09:14:34.477Z,33.70
2019-02-26T09:17:39.745Z,34.30
2019-02-26T09:20:44.313Z,34.40
2019-02-26T09:23:51.951Z,34.00
2019-02-26T09:26:57.444Z,34.40
2019-02-26T09:30:03.477Z,35.00
2019-02-26T09:33:10.887Z,35.40
2019-02-26T09:36:18.123Z,36.30
2019-02-26T09:39:22.421Z,34.90
2019-02-26T09:42:27.834Z,35.30
2019-02-26T09:45:34.119Z,36.20
2019-02-26T09:48:41.086Z,35.80
2019-02-26T09:51:45.809Z,36.50
2019-02-26T09:54:55.224Z,36.80
2019-02-26T09:58:02.482Z,37.40
2019-02-26T10:01:09.137Z,38.90
2019-02-26T10:04:14.144Z,38.20
2019-02-26T10:07:19.221Z,37.60
2019-02-26T10:10:27.593Z,37.60
2019-02-26T10:13:31.153Z,37.40
2019-02-26T10:16:36.150Z,36.40
2019-02-26T10:19:42.948Z,36.30
2019-02-26T10:22:48.304Z,36.90
2019-02-26T10:25:55.929Z,37.10
2019-02-26T10:29:04.580Z,36.60
2019-02-26T10:32:06.611Z,36.30
2019-02-26T10:35:15.913Z,36.40
2019-02-26T10:38:20.314Z,37.10
2019-02-26T10:41:25.290Z,38.10
2019-02-26T10:44:30.445Z,37.40
2019-02-26T10:47:35.413Z,36.70
2019-02-26T10:50:46.897Z,36.60
2019-02-26T10:53:50.186Z,36.60
2019-02-26T10:56:57.371Z,36.10
2019-02-26T11:00:03.519Z,36.50
2019-02-26T11:03:09.914Z,37.90
2019-02-26T11:06:17.356Z,39.20
2019-02-26T11:09:26.518Z,39.60
2019-02-26T11:12:33.359Z,38.80
2019-02-26T11:15:36.716Z,38.20
2019-02-26T11:18:42.694Z,35.50
2019-02-26T11:21:50.812Z,32.80
2019-02-26T11:24:56.200Z,31.90
2019-02-26T11:28:02.494Z,31.40
2019-02-26T11:31:09.462Z,30.80
2019-02-26T11:34:15.397Z,29.80
2019-02-26T11:37:22.103Z,28.00
2019-02-26T11:40:30.636Z,26.90
2019-02-26T11:43:35.282Z,26.10
2019-02-26T11:46:40.730Z,25.40
2019-02-26T11:49:46.700Z,24.50
2019-02-26T11:52:54.795Z,23.60
2019-02-26T11:55:59.905Z,23.00
2019-02-26T11:59:07.220Z,22.60
2019-02-26T12:02:12.150Z,22.40
2019-02-26T12:05:17.239Z,22.30
2019-02-26T12:08:25.075Z,22.20
2019-02-26T12:11:29.519Z,22.10
2019-02-26T12:14:37.278Z,21.90
2019-02-26T12:17:41.589Z,21.90
2019-02-26T12:20:48.755Z,21.80
2019-02-26T12:23:53.562Z,21.80
2019-02-26T12:26:58.552Z,21.50
2019-02-26T12:30:03.656Z,21.20
2019-02-26T12:33:09.850Z,21.40
2019-02-26T12:36:15.527Z,21.60
2019-02-26T12:39:22.232Z,23.80
2019-02-26T12:42:27.174Z,26.10
2019-02-26T12:45:42.871Z,26.20
2019-02-26T12:48:50.350Z,25.90
2019-02-26T12:51:59.653Z,26.30
2019-02-26T12:55:10.321Z,29.10
2019-02-26T12:58:17.057Z,29.70
2019-02-26T13:01:26.492Z,28.10
2019-02-26T13:04:31.482Z,26.60
2019-02-26T13:07:37.019Z,26.50
2019-02-26T13:10:45.908Z,27.40
2019-02-26T13:13:52.223Z,28.90
2019-02-26T13:16:56.976Z,30.90
2019-02-26T13:20:05.838Z,32.10
2019-02-26T13:23:16.975Z,32.50
2019-02-26T13:26:19.584Z,32.90
2019-02-26T13:29:22.245Z,34.30
2019-02-26T13:32:32.184Z,35.30
2019-02-26T13:35:34.122Z,35.60
2019-02-26T13:38:44.619Z,35.40
2019-02-26T13:41:46.007Z,36.00
2019-02-26T13:44:51.076Z,36.50
2019-02-26T13:48:01.403Z,35.30
2019-02-26T13:51:08.417Z,33.70
2019-02-26T13:54:13.598Z,33.20
2019-02-26T13:57:18.497Z,32.70
2019-02-26T14:00:26.698Z,31.90
2019-02-26T14:03:30.677Z,31.10
2019-02-26T14:06:36.000Z,30.40
2019-02-26T14:09:40.948Z,29.10
2019-02-26T14:12:46.565Z,27.40
2019-02-26T14:15:51.825Z,25.90
2019-02-26T14:18:56.725Z,24.80
2019-02-26T14:22:01.621Z,24.10
2019-02-26T14:25:06.674Z,23.50
2019-02-26T14:28:11.618Z,22.90
2019-02-26T14:31:16.566Z,22.40
2019-02-26T14:34:21.589Z,21.90
2019-02-26T14:37:26.547Z,21.60
2019-02-26T14:40:31.561Z,21.00
2019-02-26T14:43:36.863Z,20.70
2019-02-26T14:46:42.096Z,20.30
2019-02-26T14:49:47.201Z,20.10
2019-02-26T14:52:52.139Z,20.00
2019-02-26T14:55:57.276Z,19.80
2019-02-26T14:59:02.097Z,19.60
2019-02-26T15:02:07.087Z,19.40
2019-02-26T15:05:12.251Z,19.30
2019-02-26T15:08:17.190Z,19.20
2019-02-26T15:11:22.358Z,19.10
2019-02-26T15:14:27.214Z,19.00
2019-02-26T15:17:32.125Z,19.10
2019-02-26T15:20:37.151Z,19.00
2019-02-26T15:23:42.262Z,18.80
2019-02-26T15:26:47.225Z,18.70
2019-02-26T15:29:52.060Z,18.60
2019-02-26T15:33:10.568Z,18.50
2019-02-26T15:36:08.077Z,18.40
2019-02-26T15:39:13.114Z,18.30
2019-02-26T15:42:19.119Z,18.20
2019-02-26T15:45:25.027Z,18.20
2019-02-26T15:48:29.963Z,18.20
2019-02-26T15:51:35.065Z,18.20
2019-02-26T15:54:40.243Z,18.20
2019-02-26T15:57:46.298Z,18.10
2019-02-26T16:00:51.537Z,18.10
2019-02-26T16:03:56.679Z,18.10
2019-02-26T16:07:01.689Z,17.90
2019-02-26T16:10:07.851Z,17.90
2019-02-26T16:13:12.949Z,17.80
2019-02-26T16:16:18.134Z,17.70
2019-02-26T16:19:23.239Z,17.70
2019-02-26T16:22:29.070Z,17.60
2019-02-26T16:25:34.288Z,17.50
2019-02-26T16:28:39.415Z,17.40
2019-02-26T16:31:44.613Z,17.30
2019-02-26T16:34:52.205Z,17.20
2019-02-26T16:37:56.347Z,17.10
2019-02-26T16:41:02.792Z,17.00
2019-02-26T16:44:08.197Z,16.90
2019-02-26T16:47:14.645Z,16.80
2019-02-26T16:50:21.432Z,16.80
2019-02-26T16:53:26.363Z,16.60
2019-02-26T16:56:31.397Z,16.60
2019-02-26T16:59:38.538Z,16.50
2019-02-26T17:02:43.423Z,16.40
2019-02-26T17:05:48.397Z,16.40
2019-02-26T17:08:53.498Z,16.30
2019-02-26T17:11:58.577Z,16.30
2019-02-26T17:15:03.659Z,16.30
2019-02-26T17:18:09.839Z,16.30
2019-02-26T17:21:15.255Z,16.30
2019-02-26T17:24:20.633Z,16.20
2019-02-26T17:27:26.976Z,16.20
2019-02-26T17:30:33.143Z,16.10
2019-02-26T17:33:38.328Z,16.10
2019-02-26T17:36:43.295Z,16.10
2019-02-26T17:40:08.435Z,16.00
2019-02-26T17:43:13.580Z,15.90
2019-02-26T17:46:19.898Z,15.90
2019-02-26T17:49:25.018Z,15.80
2019-02-26T17:52:30.376Z,15.80
2019-02-26T17:55:35.509Z,15.70
2019-02-26T17:58:43.972Z,15.70
2019-02-26T18:01:51.591Z,15.70
2019-02-26T18:05:01.747Z,15.60
2019-02-26T18:08:09.156Z,15.60
2019-02-26T18:11:13.983Z,15.60
2019-02-26T18:14:19.538Z,15.50
2019-02-26T18:17:24.544Z,15.40
2019-02-26T18:20:30.714Z,15.40
2019-02-26T18:23:38.703Z,15.40
2019-02-26T18:26:44.979Z,15.40
2019-02-26T18:29:49.942Z,15.30
2019-02-26T18:32:57.336Z,15.20
2019-02-26T18:36:10.489Z,15.20
2019-02-26T18:39:11.247Z,15.10
2019-02-26T18:42:16.300Z,15.00
2019-02-26T18:45:27.896Z,15.00
2019-02-26T18:48:33.754Z,14.90
2019-02-26T18:51:38.821Z,14.90
2019-02-26T18:54:43.836Z,14.90
2019-02-26T18:57:52.297Z,14.90
2019-02-26T19:00:58.756Z,14.80
2019-02-26T19:04:23.376Z,14.80
2019-02-26T19:07:33.156Z,14.70
2019-02-26T19:10:35.002Z,14.70
2019-02-26T19:13:40.036Z,14.70
2019-02-26T19:16:45.180Z,14.60
2019-02-26T19:19:50.568Z,14.60
2019-02-26T19:22:58.538Z,14.50
2019-02-26T19:26:02.699Z,14.50
2019-02-26T19:29:07.842Z,14.40
2019-02-26T19:32:15.492Z,14.40
2019-02-26T19:35:19.679Z,14.40
2019-02-26T19:38:27.230Z,14.30
2019-02-26T19:41:31.380Z,14.30
2019-02-26T19:44:36.496Z,14.20
2019-02-26T19:47:41.927Z,14.20
2019-02-26T19:50:48.714Z,14.20
2019-02-26T19:53:53.603Z,14.20
2019-02-26T19:56:58.634Z,14.20
2019-02-26T20:00:04.014Z,14.20
2019-02-26T20:03:09.148Z,14.10
2019-02-26T20:06:14.277Z,14.20
2019-02-26T20:09:20.996Z,14.20
2019-02-26T20:12:28.573Z,14.20
2019-02-26T20:15:33.191Z,14.20
2019-02-26T20:18:38.280Z,14.20
2019-02-26T20:21:43.369Z,14.10
2019-02-26T20:24:48.409Z,14.10
2019-02-26T20:27:55.136Z,14.10
2019-02-26T20:31:00.353Z,14.10
2019-02-26T20:34:07.873Z,14.10
2019-02-26T20:37:12.825Z,14.10
2019-02-26T20:40:18.933Z,14.10
2019-02-26T20:43:23.915Z,14.00
2019-02-26T20:46:29.530Z,14.00
2019-02-26T20:49:34.597Z,14.00
2019-02-26T20:52:39.710Z,14.00
2019-02-26T20:55:52.229Z,13.90
2019-02-26T20:58:51.908Z,14.00
2019-02-26T21:01:57.025Z,13.80
2019-02-26T21:05:05.073Z,13.90
2019-02-26T21:08:10.311Z,13.90
2019-02-26T21:11:15.370Z,13.90
2019-02-26T21:14:20.788Z,13.90
2019-02-26T21:17:26.326Z,13.90
2019-02-26T21:20:31.515Z,13.90
2019-02-26T21:23:36.636Z,13.90
2019-02-26T21:26:41.592Z,13.90
2019-02-26T21:29:46.719Z,13.90
2019-02-26T21:32:51.652Z,13.90
2019-02-26T21:35:56.621Z,13.90
2019-02-26T21:39:20.540Z,13.80
2019-02-26T21:42:28.859Z,13.80
2019-02-26T21:45:32.549Z,13.80
2019-02-26T21:48:37.743Z,13.80
2019-02-26T21:51:42.752Z,13.80
2019-02-26T21:54:47.789Z,13.80
2019-02-26T21:57:54.725Z,13.80
2019-02-26T22:00:59.664Z,13.70
2019-02-26T22:04:04.704Z,13.70
2019-02-26T22:07:10.692Z,13.70
2019-02-26T22:10:16.000Z,13.60
2019-02-26T22:13:21.285Z,13.70
2019-02-26T22:16:26.108Z,13.60
2019-02-26T22:19:31.044Z,13.70
2019-02-26T22:22:36.032Z,13.60
2019-02-26T22:25:41.097Z,13.60
2019-02-26T22:28:46.053Z,13.50
2019-02-26T22:31:51.089Z,13.60
2019-02-26T22:34:59.969Z,13.70
2019-02-26T22:38:05.255Z,13.70
2019-02-26T22:41:10.281Z,13.70
2019-02-26T22:44:15.245Z,13.70
2019-02-26T22:47:20.268Z,13.70
2019-02-26T22:50:27.213Z,13.80
2019-02-26T22:53:36.402Z,13.70
2019-02-26T22:56:38.976Z,13.70
2019-02-26T22:59:43.907Z,13.70
2019-02-26T23:02:49.102Z,13.70
2019-02-26T23:05:53.968Z,13.60
2019-02-26T23:08:59.149Z,13.60
2019-02-26T23:12:05.071Z,13.60
2019-02-26T23:15:13.073Z,13.50
2019-02-26T23:18:18.645Z,13.50
2019-02-26T23:21:24.033Z,13.40
2019-02-26T23:24:29.538Z,13.30
2019-02-26T23:27:35.029Z,13.20
2019-02-26T23:30:42.430Z,13.20
2019-02-26T23:33:48.546Z,13.10
2019-02-26T23:36:54.354Z,13.10
2019-02-26T23:39:59.504Z,13.00
2019-02-26T23:43:04.615Z,13.10
2019-02-26T23:46:10.482Z,13.10
2019-02-26T23:49:15.768Z,13.00
2019-02-26T23:52:20.549Z,13.00
2019-02-26T23:55:26.604Z,12.90
2019-02-26T23:58:31.676Z,12.80
